sensor_id;sensor_type;location;lat;lon;timestamp;P1;durP1;ratioP1;P2;durP2;ratioP2
24223;SDS011;12359;49.716;9.212;2022-08-27T00:01:49;29.77;;;24.85;;
24223;SDS011;12359;49.716;9.212;2022-08-27T00:04:15;27.33;;;23.77;;
24223;SDS011;12359;49.716;9.212;2022-08-27T00:06:41;28.38;;;25.27;;
24223;SDS011;12359;49.716;9.212;2022-08-27T00:09:07;28.00;;;24.95;;
24223;SDS011;12359;49.716;9.212;2022-08-27T00:11:33;33.05;;;25.73;;
24223;SDS011;12359;49.716;9.212;2022-08-27T00:14:00;31.27;;;24.35;;
24223;SDS011;12359;49.716;9.212;2022-08-27T00:16:26;26.67;;;23.17;;
24223;SDS011;12359;49.716;9.212;2022-08-27T00:18:52;32.10;;;26.38;;
24223;SDS011;12359;49.716;9.212;2022-08-27T00:21:19;30.20;;;25.83;;
24223;SDS011;12359;49.716;9.212;2022-08-27T00:23:48;28.85;;;24.85;;
24223;SDS011;12359;49.716;9.212;2022-08-27T00:26:14;29.85;;;24.88;;
24223;SDS011;12359;49.716;9.212;2022-08-27T00:28:41;39.25;;;28.90;;
24223;SDS011;12359;49.716;9.212;2022-08-27T00:31:07;31.15;;;25.35;;
24223;SDS011;12359;49.716;9.212;2022-08-27T00:33:34;36.28;;;26.13;;
24223;SDS011;12359;49.716;9.212;2022-08-27T00:36:01;33.60;;;26.92;;
24223;SDS011;12359;49.716;9.212;2022-08-27T00:38:28;33.30;;;26.27;;
24223;SDS011;12359;49.716;9.212;2022-08-27T00:40:54;29.98;;;26.77;;
24223;SDS011;12359;49.716;9.212;2022-08-27T00:43:21;40.05;;;27.48;;
24223;SDS011;12359;49.716;9.212;2022-08-27T00:45:48;34.33;;;27.90;;
24223;SDS011;12359;49.716;9.212;2022-08-27T00:48:15;36.97;;;30.10;;
24223;SDS011;12359;49.716;9.212;2022-08-27T00:50:46;33.80;;;28.98;;
24223;SDS011;12359;49.716;9.212;2022-08-27T00:53:17;30.40;;;26.42;;
24223;SDS011;12359;49.716;9.212;2022-08-27T00:55:57;36.22;;;29.25;;
24223;SDS011;12359;49.716;9.212;2022-08-27T00:58:29;38.55;;;29.73;;
24223;SDS011;12359;49.716;9.212;2022-08-27T01:01:00;37.95;;;29.35;;
24223;SDS011;12359;49.716;9.212;2022-08-27T01:03:27;35.13;;;28.95;;
24223;SDS011;12359;49.716;9.212;2022-08-27T01:05:53;33.88;;;29.65;;
24223;SDS011;12359;49.716;9.212;2022-08-27T01:08:24;38.08;;;30.20;;
24223;SDS011;12359;49.716;9.212;2022-08-27T01:10:52;36.55;;;28.88;;
24223;SDS011;12359;49.716;9.212;2022-08-27T01:13:21;35.58;;;29.40;;
24223;SDS011;12359;49.716;9.212;2022-08-27T01:15:48;37.45;;;28.13;;
24223;SDS011;12359;49.716;9.212;2022-08-27T01:18:14;37.42;;;29.70;;
24223;SDS011;12359;49.716;9.212;2022-08-27T01:23:43;43.67;;;30.50;;
24223;SDS011;12359;49.716;9.212;2022-08-27T01:26:26;38.00;;;29.90;;
24223;SDS011;12359;49.716;9.212;2022-08-27T01:28:53;35.67;;;28.40;;
24223;SDS011;12359;49.716;9.212;2022-08-27T01:31:18;35.47;;;29.05;;
24223;SDS011;12359;49.716;9.212;2022-08-27T01:34:01;37.53;;;29.73;;
24223;SDS011;12359;49.716;9.212;2022-08-27T01:36:29;33.65;;;30.02;;
24223;SDS011;12359;49.716;9.212;2022-08-27T01:38:55;36.40;;;29.50;;
24223;SDS011;12359;49.716;9.212;2022-08-27T01:41:21;34.85;;;29.73;;
24223;SDS011;12359;49.716;9.212;2022-08-27T01:43:47;35.63;;;30.17;;
24223;SDS011;12359;49.716;9.212;2022-08-27T01:46:13;37.38;;;29.75;;
24223;SDS011;12359;49.716;9.212;2022-08-27T01:48:38;37.38;;;29.10;;
24223;SDS011;12359;49.716;9.212;2022-08-27T01:51:04;33.25;;;28.88;;
24223;SDS011;12359;49.716;9.212;2022-08-27T01:53:31;37.35;;;31.50;;
24223;SDS011;12359;49.716;9.212;2022-08-27T01:55:57;38.42;;;30.75;;
24223;SDS011;12359;49.716;9.212;2022-08-27T01:58:25;37.28;;;30.90;;
24223;SDS011;12359;49.716;9.212;2022-08-27T02:00:54;34.00;;;29.38;;
24223;SDS011;12359;49.716;9.212;2022-08-27T02:03:23;32.67;;;28.58;;
24223;SDS011;12359;49.716;9.212;2022-08-27T02:05:49;34.38;;;28.48;;
24223;SDS011;12359;49.716;9.212;2022-08-27T02:08:16;36.85;;;30.48;;
24223;SDS011;12359;49.716;9.212;2022-08-27T02:10:43;31.98;;;28.50;;
24223;SDS011;12359;49.716;9.212;2022-08-27T02:13:10;30.65;;;27.30;;
24223;SDS011;12359;49.716;9.212;2022-08-27T02:15:37;34.67;;;27.30;;
24223;SDS011;12359;49.716;9.212;2022-08-27T02:18:04;29.83;;;26.73;;
24223;SDS011;12359;49.716;9.212;2022-08-27T02:20:32;30.20;;;26.92;;
24223;SDS011;12359;49.716;9.212;2022-08-27T02:22:58;30.98;;;27.45;;
24223;SDS011;12359;49.716;9.212;2022-08-27T02:25:24;31.48;;;27.77;;
24223;SDS011;12359;49.716;9.212;2022-08-27T02:27:53;30.73;;;27.48;;
24223;SDS011;12359;49.716;9.212;2022-08-27T02:30:21;28.73;;;25.63;;
24223;SDS011;12359;49.716;9.212;2022-08-27T02:32:48;31.15;;;27.42;;
24223;SDS011;12359;49.716;9.212;2022-08-27T02:35:16;30.65;;;27.38;;
24223;SDS011;12359;49.716;9.212;2022-08-27T02:37:44;32.90;;;28.40;;
24223;SDS011;12359;49.716;9.212;2022-08-27T02:40:11;34.85;;;26.95;;
24223;SDS011;12359;49.716;9.212;2022-08-27T02:42:41;29.25;;;25.98;;
24223;SDS011;12359;49.716;9.212;2022-08-27T02:45:10;32.38;;;27.05;;
24223;SDS011;12359;49.716;9.212;2022-08-27T02:47:37;31.85;;;27.10;;
24223;SDS011;12359;49.716;9.212;2022-08-27T02:50:03;29.45;;;26.35;;
24223;SDS011;12359;49.716;9.212;2022-08-27T02:52:30;30.05;;;26.23;;
24223;SDS011;12359;49.716;9.212;2022-08-27T02:54:56;29.67;;;26.48;;
24223;SDS011;12359;49.716;9.212;2022-08-27T02:57:22;31.08;;;27.50;;
24223;SDS011;12359;49.716;9.212;2022-08-27T02:59:49;27.48;;;24.55;;
24223;SDS011;12359;49.716;9.212;2022-08-27T03:02:15;28.17;;;24.65;;
24223;SDS011;12359;49.716;9.212;2022-08-27T03:04:42;26.60;;;23.67;;
24223;SDS011;12359;49.716;9.212;2022-08-27T03:07:08;30.00;;;24.58;;
24223;SDS011;12359;49.716;9.212;2022-08-27T03:09:34;34.58;;;25.40;;
24223;SDS011;12359;49.716;9.212;2022-08-27T03:12:00;27.40;;;24.48;;
24223;SDS011;12359;49.716;9.212;2022-08-27T03:14:26;28.48;;;24.30;;
24223;SDS011;12359;49.716;9.212;2022-08-27T03:16:52;27.73;;;24.83;;
24223;SDS011;12359;49.716;9.212;2022-08-27T03:19:18;27.92;;;22.52;;
24223;SDS011;12359;49.716;9.212;2022-08-27T03:21:45;26.98;;;23.58;;
24223;SDS011;12359;49.716;9.212;2022-08-27T03:24:11;28.00;;;24.70;;
24223;SDS011;12359;49.716;9.212;2022-08-27T03:26:37;31.58;;;23.95;;
24223;SDS011;12359;49.716;9.212;2022-08-27T03:29:03;28.40;;;25.38;;
24223;SDS011;12359;49.716;9.212;2022-08-27T03:31:28;26.20;;;23.00;;
24223;SDS011;12359;49.716;9.212;2022-08-27T03:33:59;27.08;;;22.38;;
24223;SDS011;12359;49.716;9.212;2022-08-27T03:36:28;28.08;;;23.95;;
24223;SDS011;12359;49.716;9.212;2022-08-27T03:38:55;27.23;;;24.10;;
24223;SDS011;12359;49.716;9.212;2022-08-27T03:41:21;26.27;;;23.38;;
24223;SDS011;12359;49.716;9.212;2022-08-27T03:43:48;25.30;;;22.65;;
24223;SDS011;12359;49.716;9.212;2022-08-27T03:46:16;26.10;;;22.63;;
24223;SDS011;12359;49.716;9.212;2022-08-27T03:48:44;27.95;;;22.77;;
24223;SDS011;12359;49.716;9.212;2022-08-27T03:51:11;25.25;;;21.83;;
24223;SDS011;12359;49.716;9.212;2022-08-27T03:53:38;24.75;;;21.92;;
24223;SDS011;12359;49.716;9.212;2022-08-27T03:56:06;30.52;;;22.20;;
24223;SDS011;12359;49.716;9.212;2022-08-27T03:58:33;25.15;;;21.48;;
24223;SDS011;12359;49.716;9.212;2022-08-27T04:01:00;30.60;;;21.73;;
24223;SDS011;12359;49.716;9.212;2022-08-27T04:03:26;29.52;;;20.13;;
24223;SDS011;12359;49.716;9.212;2022-08-27T04:05:53;26.40;;;21.33;;
24223;SDS011;12359;49.716;9.212;2022-08-27T04:08:19;25.40;;;22.38;;
24223;SDS011;12359;49.716;9.212;2022-08-27T04:10:47;28.73;;;22.98;;
24223;SDS011;12359;49.716;9.212;2022-08-27T04:13:13;25.75;;;22.17;;
24223;SDS011;12359;49.716;9.212;2022-08-27T04:15:43;24.83;;;20.60;;
24223;SDS011;12359;49.716;9.212;2022-08-27T04:18:10;28.33;;;22.23;;
24223;SDS011;12359;49.716;9.212;2022-08-27T04:20:39;24.42;;;19.88;;
24223;SDS011;12359;49.716;9.212;2022-08-27T04:23:05;23.25;;;20.80;;
24223;SDS011;12359;49.716;9.212;2022-08-27T04:25:31;23.27;;;20.17;;
24223;SDS011;12359;49.716;9.212;2022-08-27T04:27:57;25.23;;;19.60;;
24223;SDS011;12359;49.716;9.212;2022-08-27T04:30:23;23.23;;;20.75;;
24223;SDS011;12359;49.716;9.212;2022-08-27T04:32:48;25.15;;;21.00;;
24223;SDS011;12359;49.716;9.212;2022-08-27T04:35:14;23.33;;;20.05;;
24223;SDS011;12359;49.716;9.212;2022-08-27T04:37:40;26.45;;;19.50;;
24223;SDS011;12359;49.716;9.212;2022-08-27T04:40:07;23.23;;;18.63;;
24223;SDS011;12359;49.716;9.212;2022-08-27T04:42:34;21.27;;;19.02;;
24223;SDS011;12359;49.716;9.212;2022-08-27T04:44:59;25.50;;;19.35;;
24223;SDS011;12359;49.716;9.212;2022-08-27T04:47:26;26.65;;;19.98;;
24223;SDS011;12359;49.716;9.212;2022-08-27T04:49:52;22.02;;;19.65;;
24223;SDS011;12359;49.716;9.212;2022-08-27T04:52:17;21.88;;;18.17;;
24223;SDS011;12359;49.716;9.212;2022-08-27T04:54:43;21.35;;;17.23;;
24223;SDS011;12359;49.716;9.212;2022-08-27T04:57:09;20.45;;;16.40;;
24223;SDS011;12359;49.716;9.212;2022-08-27T04:59:35;21.27;;;16.95;;
24223;SDS011;12359;49.716;9.212;2022-08-27T05:02:03;19.35;;;17.13;;
24223;SDS011;12359;49.716;9.212;2022-08-27T05:04:33;19.50;;;17.05;;
24223;SDS011;12359;49.716;9.212;2022-08-27T05:07:02;23.92;;;17.58;;
24223;SDS011;12359;49.716;9.212;2022-08-27T05:09:28;23.65;;;17.73;;
24223;SDS011;12359;49.716;9.212;2022-08-27T05:11:54;20.95;;;16.02;;
24223;SDS011;12359;49.716;9.212;2022-08-27T05:14:20;18.05;;;15.82;;
24223;SDS011;12359;49.716;9.212;2022-08-27T05:16:48;17.92;;;16.02;;
24223;SDS011;12359;49.716;9.212;2022-08-27T05:19:13;20.77;;;15.38;;
24223;SDS011;12359;49.716;9.212;2022-08-27T05:21:43;23.35;;;17.67;;
24223;SDS011;12359;49.716;9.212;2022-08-27T05:24:11;17.63;;;15.77;;
24223;SDS011;12359;49.716;9.212;2022-08-27T05:26:37;23.63;;;17.58;;
24223;SDS011;12359;49.716;9.212;2022-08-27T05:29:03;22.52;;;18.13;;
24223;SDS011;12359;49.716;9.212;2022-08-27T05:31:30;21.13;;;16.08;;
24223;SDS011;12359;49.716;9.212;2022-08-27T05:33:56;22.33;;;18.27;;
24223;SDS011;12359;49.716;9.212;2022-08-27T05:36:29;19.77;;;16.20;;
24223;SDS011;12359;49.716;9.212;2022-08-27T05:38:58;27.63;;;18.23;;
24223;SDS011;12359;49.716;9.212;2022-08-27T05:41:28;21.58;;;18.30;;
24223;SDS011;12359;49.716;9.212;2022-08-27T05:43:56;21.35;;;18.40;;
24223;SDS011;12359;49.716;9.212;2022-08-27T05:46:25;23.30;;;16.85;;
24223;SDS011;12359;49.716;9.212;2022-08-27T05:48:54;20.05;;;16.55;;
24223;SDS011;12359;49.716;9.212;2022-08-27T05:51:31;22.48;;;16.45;;
24223;SDS011;12359;49.716;9.212;2022-08-27T05:54:08;19.02;;;15.77;;
24223;SDS011;12359;49.716;9.212;2022-08-27T05:56:43;20.25;;;16.35;;
24223;SDS011;12359;49.716;9.212;2022-08-27T05:59:09;20.98;;;17.13;;
24223;SDS011;12359;49.716;9.212;2022-08-27T06:01:54;20.13;;;16.60;;
24223;SDS011;12359;49.716;9.212;2022-08-27T06:04:21;23.48;;;17.33;;
24223;SDS011;12359;49.716;9.212;2022-08-27T06:06:49;26.05;;;17.90;;
24223;SDS011;12359;49.716;9.212;2022-08-27T06:09:17;18.75;;;16.40;;
24223;SDS011;12359;49.716;9.212;2022-08-27T06:11:45;22.30;;;17.75;;
24223;SDS011;12359;49.716;9.212;2022-08-27T06:14:11;21.13;;;19.02;;
24223;SDS011;12359;49.716;9.212;2022-08-27T06:16:37;18.92;;;16.77;;
24223;SDS011;12359;49.716;9.212;2022-08-27T06:19:03;23.98;;;15.48;;
24223;SDS011;12359;49.716;9.212;2022-08-27T06:21:31;17.55;;;15.75;;
24223;SDS011;12359;49.716;9.212;2022-08-27T06:23:57;16.52;;;14.70;;
24223;SDS011;12359;49.716;9.212;2022-08-27T06:26:23;19.20;;;13.90;;
24223;SDS011;12359;49.716;9.212;2022-08-27T06:28:50;17.80;;;14.93;;
24223;SDS011;12359;49.716;9.212;2022-08-27T06:31:20;22.05;;;18.00;;
24223;SDS011;12359;49.716;9.212;2022-08-27T06:33:48;21.52;;;17.92;;
24223;SDS011;12359;49.716;9.212;2022-08-27T06:36:16;20.05;;;16.50;;
24223;SDS011;12359;49.716;9.212;2022-08-27T06:38:44;22.60;;;17.13;;
24223;SDS011;12359;49.716;9.212;2022-08-27T06:41:12;20.42;;;17.15;;
24223;SDS011;12359;49.716;9.212;2022-08-27T06:43:39;19.45;;;17.38;;
24223;SDS011;12359;49.716;9.212;2022-08-27T06:46:06;20.58;;;18.25;;
24223;SDS011;12359;49.716;9.212;2022-08-27T06:48:37;22.23;;;18.55;;
24223;SDS011;12359;49.716;9.212;2022-08-27T06:51:07;22.05;;;16.77;;
24223;SDS011;12359;49.716;9.212;2022-08-27T06:53:36;18.95;;;16.15;;
24223;SDS011;12359;49.716;9.212;2022-08-27T06:56:03;17.85;;;16.08;;
24223;SDS011;12359;49.716;9.212;2022-08-27T06:58:29;15.60;;;14.10;;
24223;SDS011;12359;49.716;9.212;2022-08-27T07:00:55;18.63;;;14.10;;
24223;SDS011;12359;49.716;9.212;2022-08-27T07:03:24;16.33;;;13.10;;
24223;SDS011;12359;49.716;9.212;2022-08-27T07:05:50;17.48;;;12.90;;
24223;SDS011;12359;49.716;9.212;2022-08-27T07:08:16;15.60;;;13.50;;
24223;SDS011;12359;49.716;9.212;2022-08-27T07:10:41;19.55;;;14.45;;
24223;SDS011;12359;49.716;9.212;2022-08-27T07:13:07;16.92;;;12.30;;
24223;SDS011;12359;49.716;9.212;2022-08-27T07:15:35;18.40;;;13.48;;
24223;SDS011;12359;49.716;9.212;2022-08-27T07:18:03;16.52;;;13.32;;
24223;SDS011;12359;49.716;9.212;2022-08-27T07:20:29;18.83;;;12.90;;
24223;SDS011;12359;49.716;9.212;2022-08-27T07:22:54;14.70;;;12.38;;
24223;SDS011;12359;49.716;9.212;2022-08-27T07:25:23;12.50;;;10.73;;
24223;SDS011;12359;49.716;9.212;2022-08-27T07:27:50;14.48;;;12.45;;
24223;SDS011;12359;49.716;9.212;2022-08-27T07:30:16;16.20;;;12.48;;
24223;SDS011;12359;49.716;9.212;2022-08-27T07:32:42;15.57;;;12.20;;
24223;SDS011;12359;49.716;9.212;2022-08-27T07:35:09;16.30;;;12.65;;
24223;SDS011;12359;49.716;9.212;2022-08-27T07:37:35;14.30;;;10.85;;
24223;SDS011;12359;49.716;9.212;2022-08-27T07:40:06;15.35;;;11.88;;
24223;SDS011;12359;49.716;9.212;2022-08-27T07:42:34;15.02;;;12.45;;
24223;SDS011;12359;49.716;9.212;2022-08-27T07:45:19;13.38;;;11.50;;
24223;SDS011;12359;49.716;9.212;2022-08-27T07:47:45;14.88;;;11.50;;
24223;SDS011;12359;49.716;9.212;2022-08-27T07:50:10;17.20;;;10.40;;
24223;SDS011;12359;49.716;9.212;2022-08-27T07:52:36;14.25;;;11.52;;
24223;SDS011;12359;49.716;9.212;2022-08-27T07:55:02;13.80;;;10.90;;
24223;SDS011;12359;49.716;9.212;2022-08-27T07:57:29;17.92;;;11.43;;
24223;SDS011;12359;49.716;9.212;2022-08-27T07:59:55;17.48;;;11.98;;
24223;SDS011;12359;49.716;9.212;2022-08-27T08:02:21;16.48;;;11.45;;
24223;SDS011;12359;49.716;9.212;2022-08-27T08:04:47;14.45;;;10.43;;
24223;SDS011;12359;49.716;9.212;2022-08-27T08:07:12;10.45;;;9.30;;
24223;SDS011;12359;49.716;9.212;2022-08-27T08:09:38;17.77;;;11.18;;
24223;SDS011;12359;49.716;9.212;2022-08-27T08:12:04;23.77;;;11.05;;
24223;SDS011;12359;49.716;9.212;2022-08-27T08:14:30;13.90;;;9.05;;
24223;SDS011;12359;49.716;9.212;2022-08-27T08:17:02;12.48;;;10.48;;
24223;SDS011;12359;49.716;9.212;2022-08-27T08:19:28;14.15;;;10.13;;
24223;SDS011;12359;49.716;9.212;2022-08-27T08:21:54;11.63;;;10.43;;
24223;SDS011;12359;49.716;9.212;2022-08-27T08:24:20;16.35;;;10.80;;
24223;SDS011;12359;49.716;9.212;2022-08-27T08:26:46;15.25;;;10.73;;
24223;SDS011;12359;49.716;9.212;2022-08-27T08:29:12;13.48;;;9.57;;
24223;SDS011;12359;49.716;9.212;2022-08-27T08:31:41;17.77;;;9.73;;
24223;SDS011;12359;49.716;9.212;2022-08-27T08:34:07;16.15;;;9.57;;
24223;SDS011;12359;49.716;9.212;2022-08-27T08:36:34;16.70;;;10.73;;
24223;SDS011;12359;49.716;9.212;2022-08-27T08:38:59;14.23;;;9.60;;
24223;SDS011;12359;49.716;9.212;2022-08-27T08:44:07;14.82;;;10.45;;
24223;SDS011;12359;49.716;9.212;2022-08-27T08:46:40;17.65;;;10.07;;
24223;SDS011;12359;49.716;9.212;2022-08-27T08:49:31;16.42;;;9.98;;
24223;SDS011;12359;49.716;9.212;2022-08-27T08:55:01;12.32;;;9.80;;
24223;SDS011;12359;49.716;9.212;2022-08-27T08:57:52;10.30;;;9.13;;
24223;SDS011;12359;49.716;9.212;2022-08-27T09:00:51;11.55;;;8.38;;
24223;SDS011;12359;49.716;9.212;2022-08-27T09:03:21;15.55;;;9.60;;
24223;SDS011;12359;49.716;9.212;2022-08-27T09:05:57;11.20;;;8.98;;
24223;SDS011;12359;49.716;9.212;2022-08-27T09:16:31;15.57;;;8.32;;
24223;SDS011;12359;49.716;9.212;2022-08-27T09:18:57;8.50;;;7.63;;
24223;SDS011;12359;49.716;9.212;2022-08-27T09:26:39;12.63;;;8.95;;
24223;SDS011;12359;49.716;9.212;2022-08-27T09:29:07;11.07;;;9.05;;
24223;SDS011;12359;49.716;9.212;2022-08-27T09:31:44;13.23;;;8.73;;
24223;SDS011;12359;49.716;9.212;2022-08-27T09:34:10;13.70;;;8.07;;
24223;SDS011;12359;49.716;9.212;2022-08-27T09:36:54;13.65;;;8.57;;
24223;SDS011;12359;49.716;9.212;2022-08-27T09:39:28;14.45;;;8.75;;
24223;SDS011;12359;49.716;9.212;2022-08-27T09:41:57;12.07;;;8.05;;
24223;SDS011;12359;49.716;9.212;2022-08-27T09:44:23;8.75;;;7.85;;
24223;SDS011;12359;49.716;9.212;2022-08-27T09:46:51;9.02;;;8.02;;
24223;SDS011;12359;49.716;9.212;2022-08-27T09:49:17;11.25;;;8.60;;
24223;SDS011;12359;49.716;9.212;2022-08-27T09:51:44;9.75;;;7.95;;
24223;SDS011;12359;49.716;9.212;2022-08-27T09:54:20;13.27;;;8.45;;
24223;SDS011;12359;49.716;9.212;2022-08-27T09:57:12;11.43;;;7.72;;
24223;SDS011;12359;49.716;9.212;2022-08-27T09:59:50;11.77;;;7.70;;
24223;SDS011;12359;49.716;9.212;2022-08-27T10:02:19;11.77;;;7.53;;
24223;SDS011;12359;49.716;9.212;2022-08-27T10:04:47;12.23;;;7.78;;
24223;SDS011;12359;49.716;9.212;2022-08-27T10:10:27;16.38;;;7.88;;
24223;SDS011;12359;49.716;9.212;2022-08-27T10:13:17;10.20;;;7.35;;
24223;SDS011;12359;49.716;9.212;2022-08-27T10:39:05;10.57;;;7.03;;
24223;SDS011;12359;49.716;9.212;2022-08-27T10:42:31;8.38;;;6.82;;
24223;SDS011;12359;49.716;9.212;2022-08-27T10:44:47;9.40;;;7.05;;
24223;SDS011;12359;49.716;9.212;2022-08-27T10:52:48;11.75;;;7.40;;
24223;SDS011;12359;49.716;9.212;2022-08-27T10:55:22;8.52;;;6.47;;
24223;SDS011;12359;49.716;9.212;2022-08-27T11:01:21;7.22;;;6.50;;
24223;SDS011;12359;49.716;9.212;2022-08-27T11:03:33;9.65;;;7.20;;
24223;SDS011;12359;49.716;9.212;2022-08-27T11:06:31;10.65;;;7.18;;
24223;SDS011;12359;49.716;9.212;2022-08-27T11:12:06;7.57;;;6.63;;
24223;SDS011;12359;49.716;9.212;2022-08-27T11:17:07;9.27;;;6.95;;
24223;SDS011;12359;49.716;9.212;2022-08-27T11:22:19;8.63;;;7.45;;
24223;SDS011;12359;49.716;9.212;2022-08-27T11:27:35;7.18;;;6.47;;
24223;SDS011;12359;49.716;9.212;2022-08-27T11:35:24;10.98;;;7.65;;
24223;SDS011;12359;49.716;9.212;2022-08-27T11:43:14;7.90;;;6.00;;
24223;SDS011;12359;49.716;9.212;2022-08-27T11:46:00;7.97;;;6.47;;
24223;SDS011;12359;49.716;9.212;2022-08-27T11:48:29;8.35;;;6.75;;
24223;SDS011;12359;49.716;9.212;2022-08-27T11:51:11;9.02;;;6.03;;
24223;SDS011;12359;49.716;9.212;2022-08-27T11:53:40;11.32;;;6.88;;
24223;SDS011;12359;49.716;9.212;2022-08-27T11:56:11;7.40;;;5.80;;
24223;SDS011;12359;49.716;9.212;2022-08-27T11:58:44;9.45;;;5.60;;
24223;SDS011;12359;49.716;9.212;2022-08-27T12:01:43;7.35;;;5.38;;
24223;SDS011;12359;49.716;9.212;2022-08-27T12:04:18;8.15;;;5.45;;
24223;SDS011;12359;49.716;9.212;2022-08-27T12:13:11;8.55;;;5.78;;
24223;SDS011;12359;49.716;9.212;2022-08-27T12:16:00;6.40;;;5.18;;
24223;SDS011;12359;49.716;9.212;2022-08-27T12:21:21;6.90;;;6.20;;
24223;SDS011;12359;49.716;9.212;2022-08-27T12:26:57;9.20;;;5.63;;
24223;SDS011;12359;49.716;9.212;2022-08-27T12:38:17;6.90;;;4.93;;
24223;SDS011;12359;49.716;9.212;2022-08-27T12:41:00;4.95;;;4.35;;
24223;SDS011;12359;49.716;9.212;2022-08-27T12:43:33;5.15;;;4.57;;
24223;SDS011;12359;49.716;9.212;2022-08-27T12:46:13;5.05;;;3.92;;
24223;SDS011;12359;49.716;9.212;2022-08-27T12:48:43;5.28;;;4.47;;
24223;SDS011;12359;49.716;9.212;2022-08-27T13:02:29;4.68;;;4.22;;
24223;SDS011;12359;49.716;9.212;2022-08-27T13:05:06;5.22;;;4.40;;
24223;SDS011;12359;49.716;9.212;2022-08-27T13:07:38;5.07;;;4.57;;
24223;SDS011;12359;49.716;9.212;2022-08-27T13:10:18;5.28;;;4.63;;
24223;SDS011;12359;49.716;9.212;2022-08-27T13:12:58;9.10;;;4.68;;
24223;SDS011;12359;49.716;9.212;2022-08-27T13:15:35;6.05;;;4.97;;
24223;SDS011;12359;49.716;9.212;2022-08-27T13:18:17;8.75;;;4.97;;
24223;SDS011;12359;49.716;9.212;2022-08-27T13:20:43;6.70;;;5.03;;
24223;SDS011;12359;49.716;9.212;2022-08-27T13:23:19;6.72;;;4.50;;
24223;SDS011;12359;49.716;9.212;2022-08-27T13:25:56;6.10;;;4.80;;
24223;SDS011;12359;49.716;9.212;2022-08-27T13:28:25;5.80;;;4.93;;
24223;SDS011;12359;49.716;9.212;2022-08-27T13:30:53;6.07;;;4.82;;
24223;SDS011;12359;49.716;9.212;2022-08-27T13:33:23;4.57;;;4.18;;
24223;SDS011;12359;49.716;9.212;2022-08-27T13:35:52;8.07;;;5.15;;
24223;SDS011;12359;49.716;9.212;2022-08-27T13:38:19;5.60;;;4.47;;
24223;SDS011;12359;49.716;9.212;2022-08-27T13:41:05;6.35;;;4.72;;
24223;SDS011;12359;49.716;9.212;2022-08-27T13:43:37;6.53;;;4.90;;
24223;SDS011;12359;49.716;9.212;2022-08-27T13:46:10;6.88;;;4.45;;
24223;SDS011;12359;49.716;9.212;2022-08-27T13:48:43;7.28;;;4.88;;
24223;SDS011;12359;49.716;9.212;2022-08-27T13:51:12;7.47;;;4.60;;
24223;SDS011;12359;49.716;9.212;2022-08-27T13:53:43;5.68;;;4.13;;
24223;SDS011;12359;49.716;9.212;2022-08-27T13:56:32;7.22;;;4.35;;
24223;SDS011;12359;49.716;9.212;2022-08-27T14:07:05;7.30;;;4.70;;
24223;SDS011;12359;49.716;9.212;2022-08-27T14:09:34;5.50;;;4.35;;
24223;SDS011;12359;49.716;9.212;2022-08-27T14:12:07;8.07;;;5.03;;
24223;SDS011;12359;49.716;9.212;2022-08-27T14:14:35;13.07;;;5.72;;
24223;SDS011;12359;49.716;9.212;2022-08-27T14:17:04;8.93;;;5.55;;
24223;SDS011;12359;49.716;9.212;2022-08-27T14:19:43;34.28;;;11.23;;
24223;SDS011;12359;49.716;9.212;2022-08-27T14:22:09;23.25;;;10.82;;
24223;SDS011;12359;49.716;9.212;2022-08-27T14:24:34;18.42;;;8.63;;
24223;SDS011;12359;49.716;9.212;2022-08-27T14:27:06;16.77;;;9.32;;
24223;SDS011;12359;49.716;9.212;2022-08-27T14:29:34;11.27;;;8.25;;
24223;SDS011;12359;49.716;9.212;2022-08-27T14:32:00;14.07;;;7.20;;
24223;SDS011;12359;49.716;9.212;2022-08-27T14:34:25;11.32;;;7.97;;
24223;SDS011;12359;49.716;9.212;2022-08-27T14:36:52;16.17;;;8.70;;
24223;SDS011;12359;49.716;9.212;2022-08-27T14:39:18;11.60;;;8.93;;
24223;SDS011;12359;49.716;9.212;2022-08-27T14:41:44;8.82;;;7.72;;
24223;SDS011;12359;49.716;9.212;2022-08-27T14:44:10;18.00;;;8.68;;
24223;SDS011;12359;49.716;9.212;2022-08-27T14:46:35;14.75;;;8.63;;
24223;SDS011;12359;49.716;9.212;2022-08-27T14:49:05;11.32;;;8.60;;
24223;SDS011;12359;49.716;9.212;2022-08-27T14:51:37;13.95;;;9.25;;
24223;SDS011;12359;49.716;9.212;2022-08-27T14:54:06;12.07;;;9.13;;
24223;SDS011;12359;49.716;9.212;2022-08-27T14:56:32;18.00;;;9.05;;
24223;SDS011;12359;49.716;9.212;2022-08-27T14:58:57;14.02;;;8.15;;
24223;SDS011;12359;49.716;9.212;2022-08-27T15:01:23;12.65;;;8.38;;
24223;SDS011;12359;49.716;9.212;2022-08-27T15:03:50;8.63;;;7.63;;
24223;SDS011;12359;49.716;9.212;2022-08-27T15:06:17;11.25;;;8.38;;
24223;SDS011;12359;49.716;9.212;2022-08-27T15:08:45;10.07;;;8.27;;
24223;SDS011;12359;49.716;9.212;2022-08-27T15:11:13;12.63;;;9.35;;
24223;SDS011;12359;49.716;9.212;2022-08-27T15:13:41;9.48;;;8.38;;
24223;SDS011;12359;49.716;9.212;2022-08-27T15:16:07;13.43;;;9.20;;
24223;SDS011;12359;49.716;9.212;2022-08-27T15:18:36;8.77;;;7.43;;
24223;SDS011;12359;49.716;9.212;2022-08-27T15:21:02;11.02;;;8.43;;
24223;SDS011;12359;49.716;9.212;2022-08-27T15:23:27;9.15;;;8.23;;
24223;SDS011;12359;49.716;9.212;2022-08-27T15:25:53;8.65;;;7.63;;
24223;SDS011;12359;49.716;9.212;2022-08-27T15:28:19;9.82;;;7.95;;
24223;SDS011;12359;49.716;9.212;2022-08-27T15:30:45;10.85;;;8.32;;
24223;SDS011;12359;49.716;9.212;2022-08-27T15:33:11;9.05;;;8.07;;
24223;SDS011;12359;49.716;9.212;2022-08-27T15:35:37;10.60;;;9.00;;
24223;SDS011;12359;49.716;9.212;2022-08-27T15:38:02;14.20;;;8.48;;
24223;SDS011;12359;49.716;9.212;2022-08-27T15:40:30;9.82;;;7.80;;
24223;SDS011;12359;49.716;9.212;2022-08-27T15:42:59;17.08;;;8.48;;
24223;SDS011;12359;49.716;9.212;2022-08-27T15:45:27;10.68;;;7.72;;
24223;SDS011;12359;49.716;9.212;2022-08-27T15:47:54;11.38;;;7.72;;
24223;SDS011;12359;49.716;9.212;2022-08-27T15:50:20;13.48;;;8.48;;
24223;SDS011;12359;49.716;9.212;2022-08-27T15:52:46;10.98;;;8.15;;
24223;SDS011;12359;49.716;9.212;2022-08-27T15:55:19;12.27;;;8.63;;
24223;SDS011;12359;49.716;9.212;2022-08-27T15:57:47;12.13;;;8.32;;
24223;SDS011;12359;49.716;9.212;2022-08-27T16:00:13;16.00;;;8.32;;
24223;SDS011;12359;49.716;9.212;2022-08-27T16:02:40;15.73;;;7.63;;
24223;SDS011;12359;49.716;9.212;2022-08-27T16:05:08;10.50;;;8.20;;
24223;SDS011;12359;49.716;9.212;2022-08-27T16:07:35;8.98;;;7.57;;
24223;SDS011;12359;49.716;9.212;2022-08-27T16:10:01;13.23;;;8.40;;
24223;SDS011;12359;49.716;9.212;2022-08-27T16:12:28;11.35;;;7.75;;
24223;SDS011;12359;49.716;9.212;2022-08-27T16:14:54;15.43;;;8.90;;
24223;SDS011;12359;49.716;9.212;2022-08-27T16:17:20;10.30;;;8.82;;
24223;SDS011;12359;49.716;9.212;2022-08-27T16:19:47;10.30;;;9.05;;
24223;SDS011;12359;49.716;9.212;2022-08-27T16:22:13;11.88;;;8.60;;
24223;SDS011;12359;49.716;9.212;2022-08-27T16:24:40;10.25;;;8.18;;
24223;SDS011;12359;49.716;9.212;2022-08-27T16:27:06;12.82;;;9.73;;
24223;SDS011;12359;49.716;9.212;2022-08-27T16:29:32;11.82;;;8.02;;
24223;SDS011;12359;49.716;9.212;2022-08-27T16:31:57;12.02;;;9.73;;
24223;SDS011;12359;49.716;9.212;2022-08-27T16:34:24;11.45;;;10.18;;
24223;SDS011;12359;49.716;9.212;2022-08-27T16:36:52;10.75;;;9.05;;
24223;SDS011;12359;49.716;9.212;2022-08-27T16:39:18;12.20;;;9.85;;